Time;durP1;ratioP1;P1;durP2;ratioP2;P2;SDS_P1;SDS_P2;PMS_P1;PMS_P2;Temp;Humidity;BMP_temperature;BMP_pressure;BME280_temperature;BME280_humidity;BME280_pressure;Samples;Min_cycle;Max_cycle;Signal;HPM_P1;HPM_P2
2022/09/12 00:01:49;;;;;;;33.00;26.65;;;;;;;13.04;100.00;101633.13;5035883;28;20036;-58
2022/09/12 00:04:14;;;;;;;33.80;27.40;;;;;;;13.04;100.00;101635.91;5053727;28;20102;-57
2022/09/12 00:06:40;;;;;;;33.40;26.42;;;;;;;12.94;100.00;101619.41;5053860;28;20032;-59
2022/09/12 00:09:08;;;;;;;32.78;26.17;;;;;;;12.99;100.00;101624.06;5054173;28;20082;-59
2022/09/12 00:11:36;;;;;;;37.65;27.35;;;;;;;12.90;100.00;101624.75;5054028;28;20178;-58
2022/09/12 00:14:02;;;;;;;33.30;26.85;;;;;;;12.86;100.00;101623.72;5053940;28;20032;-59
2022/09/12 00:16:30;;;;;;;33.03;27.25;;;;;;;12.71;100.00;101602.56;5053564;28;20431;-59
2022/09/12 00:18:55;;;;;;;35.60;28.27;;;;;;;12.81;100.00;101623.81;5035327;28;20404;-59
2022/09/12 00:21:21;;;;;;;35.85;27.92;;;;;;;12.82;100.00;101621.84;5053615;28;20074;-57
2022/09/12 00:23:48;;;;;;;34.47;26.35;;;;;;;12.82;100.00;101610.72;5053802;28;20052;-58
2022/09/12 00:26:13;;;;;;;34.13;27.50;;;;;;;12.79;100.00;101623.28;5053107;28;20032;-58
2022/09/12 00:28:40;;;;;;;33.58;27.35;;;;;;;12.77;100.00;101611.63;5053598;28;20021;-58
2022/09/12 00:31:11;;;;;;;34.35;27.60;;;;;;;12.72;100.00;101607.00;5053841;28;20096;-59
2022/09/12 00:33:37;;;;;;;33.28;27.10;;;;;;;12.70;100.00;101600.94;5053749;28;20064;-58
2022/09/12 00:36:05;;;;;;;34.05;27.63;;;;;;;12.69;100.00;101606.78;5053832;28;20063;-60
2022/09/12 00:38:31;;;;;;;33.55;26.95;;;;;;;12.68;100.00;101602.34;5052888;28;20036;-58
2022/09/12 00:40:56;;;;;;;33.67;27.40;;;;;;;12.66;100.00;101599.06;5053313;28;20356;-59
2022/09/12 00:43:38;;;;;;;36.45;27.63;;;;;;;12.66;100.00;101599.06;5053422;28;20386;-60
2022/09/12 00:46:19;;;;;;;34.90;27.45;;;;;;;12.67;100.00;101595.13;5053242;28;20119;-59
2022/09/12 00:48:53;;;;;;;36.72;28.48;;;;;;;12.66;100.00;101597.09;5053674;28;20064;-59
2022/09/12 00:51:19;;;;;;;37.00;28.13;;;;;;;12.64;100.00;101593.81;5053501;28;20051;-58
2022/09/12 00:53:47;;;;;;;35.58;28.33;;;;;;;12.64;100.00;101585.47;5035422;28;20464;-60
2022/09/12 00:56:16;;;;;;;38.25;28.92;;;;;;;12.52;100.00;101580.38;5053700;28;20025;-60
2022/09/12 00:58:49;;;;;;;34.78;28.15;;;;;;;12.54;100.00;101591.19;5053097;28;20397;-59
2022/09/12 01:01:14;;;;;;;35.27;28.37;;;;;;;12.52;100.00;101577.63;5053212;28;20041;-59
2022/09/12 01:03:40;;;;;;;35.60;27.40;;;;;;;12.48;100.00;101579.34;5053397;28;20086;-59
2022/09/12 01:06:19;;;;;;;33.15;25.85;;;;;;;12.42;100.00;101575.81;5052910;28;20033;-59
2022/09/12 01:08:47;;;;;;;35.60;27.80;;;;;;;12.38;100.00;101579.47;5053136;28;20044;-60
2022/09/12 01:11:14;;;;;;;33.40;26.00;;;;;;;12.36;100.00;101568.69;5052690;28;20032;-57
2022/09/12 01:13:40;;;;;;;33.88;26.70;;;;;;;12.36;100.00;101565.91;5051659;28;20029;-59
2022/09/12 01:16:07;;;;;;;35.67;26.92;;;;;;;12.35;100.00;101569.00;5052412;28;20037;-59
2022/09/12 01:18:40;;;;;;;33.92;26.75;;;;;;;12.33;100.00;101567.34;5092046;22;20052;-60
2022/09/12 01:21:19;;;;;;;33.08;26.17;;;;;;;12.31;100.00;101569.59;5093274;28;20040;-60
2022/09/12 01:24:00;;;;;;;34.55;27.08;;;;;;;12.29;100.00;101571.84;5093276;28;20383;-59
2022/09/12 01:27:13;;;;;;;32.20;26.10;;;;;;;12.26;100.00;101568.84;5092908;28;20054;-59
2022/09/12 01:29:57;;;;;;;34.08;27.77;;;;;;;12.23;100.00;101567.50;5087088;28;20047;-60
2022/09/12 01:32:42;;;;;;;34.15;27.48;;;;;;;12.20;100.00;101565.31;5092512;28;20020;-59
2022/09/12 01:35:38;;;;;;;33.83;26.13;;;;;;;12.06;100.00;101547.78;5092920;28;20143;-60
2022/09/12 01:38:28;;;;;;;33.88;26.27;;;;;;;12.07;100.00;101543.91;5074349;28;20466;-58
2022/09/12 01:41:21;;;;;;;33.42;26.80;;;;;;;12.07;100.00;101555.00;5092712;28;20024;-60
2022/09/12 01:43:57;;;;;;;34.45;26.00;;;;;;;11.95;100.00;101547.91;5092326;28;20465;-59
2022/09/12 01:46:51;;;;;;;35.80;26.70;;;;;;;11.85;100.00;101534.16;5092248;28;20059;-59
2022/09/12 01:49:22;;;;;;;35.63;28.52;;;;;;;11.88;100.00;101541.06;5069014;28;20439;-59
2022/09/12 01:51:58;;;;;;;34.60;27.25;;;;;;;11.92;100.00;101542.94;5092416;28;20024;-60
2022/09/12 01:54:33;;;;;;;36.42;27.52;;;;;;;11.92;100.00;101545.72;5092628;28;20027;-59
2022/09/12 01:57:06;;;;;;;35.08;27.65;;;;;;;11.93;100.00;101538.22;5092298;28;20039;-58
2022/09/12 01:59:50;;;;;;;34.97;27.33;;;;;;;11.82;100.00;101531.97;5092429;28;20032;-59
2022/09/12 02:02:30;;;;;;;33.13;26.92;;;;;;;11.80;100.00;101523.16;5073367;28;20030;-60
2022/09/12 02:05:03;;;;;;;34.90;27.42;;;;;;;11.77;100.00;101532.88;5092324;28;20465;-60
2022/09/12 02:07:47;;;;;;;36.72;28.05;;;;;;;11.74;100.00;101522.41;5092053;28;20095;-60
2022/09/12 02:10:20;;;;;;;36.15;28.73;;;;;;;11.76;100.00;101531.22;5092838;28;20038;-60
2022/09/12 02:12:57;;;;;;;37.38;29.50;;;;;;;11.72;100.00;101521.88;5091996;28;20035;-60
2022/09/12 02:15:31;;;;;;;36.28;28.55;;;;;;;11.67;100.00;101514.44;5092290;28;20060;-60
2022/09/12 02:17:59;;;;;;;36.78;28.33;;;;;;;11.65;100.00;101515.88;5091572;28;20495;-59
2022/09/12 02:20:28;;;;;;;36.90;28.08;;;;;;;11.64;100.00;101520.56;5092252;28;20024;-60
2022/09/12 02:22:56;;;;;;;37.20;29.48;;;;;;;11.55;100.00;101506.56;5092145;28;20031;-60
2022/09/12 02:25:24;;;;;;;37.42;29.17;;;;;;;11.66;100.00;101514.75;5091689;28;20043;-60
2022/09/12 02:27:58;;;;;;;38.10;29.42;;;;;;;11.54;100.00;101502.16;5091180;28;20103;-59
2022/09/12 02:30:24;;;;;;;35.75;27.58;;;;;;;11.57;100.00;101508.22;5091762;28;20047;-60
2022/09/12 02:33:05;;;;;;;36.47;28.48;;;;;;;11.55;100.00;101509.34;5092159;28;20408;-59
2022/09/12 02:35:37;;;;;;;37.03;30.08;;;;;;;11.57;100.00;101513.75;5091999;28;20115;-59
2022/09/12 02:38:08;;;;;;;37.70;29.38;;;;;;;11.51;100.00;101501.91;5091884;28;20103;-60
2022/09/12 02:40:34;;;;;;;37.33;29.35;;;;;;;11.57;100.00;101517.34;5073887;28;20317;-60
2022/09/12 02:43:01;;;;;;;38.65;29.48;;;;;;;11.57;100.00;101519.31;5091346;28;20476;-60
2022/09/12 02:45:28;;;;;;;35.45;27.08;;;;;;;11.56;100.00;101526.78;5091160;28;20055;-57
2022/09/12 02:48:09;;;;;;;36.10;27.92;;;;;;;11.57;100.00;101522.06;5091479;28;20020;-60
2022/09/12 02:50:36;;;;;;;37.17;28.95;;;;;;;11.54;100.00;101520.69;5091781;28;20020;-60
2022/09/12 02:53:04;;;;;;;36.53;27.60;;;;;;;11.55;100.00;101516.81;5091633;28;20031;-59
2022/09/12 02:55:32;;;;;;;35.30;28.55;;;;;;;11.43;100.00;101508.13;5091253;28;20051;-59
2022/09/12 02:57:59;;;;;;;37.03;29.40;;;;;;;11.47;100.00;101515.53;5091727;28;20016;-59
2022/09/12 03:00:25;;;;;;;35.70;27.02;;;;;;;11.41;100.00;101504.81;5091388;28;20107;-59
2022/09/12 03:03:28;;;;;;;35.88;28.58;;;;;;;11.42;100.00;101509.22;5091092;28;20123;-58
2022/09/12 03:05:58;;;;;;;35.33;27.40;;;;;;;11.40;100.00;101506.75;5091274;28;20028;-57
2022/09/12 03:08:55;;;;;;;37.95;28.27;;;;;;;11.38;100.00;101495.16;5073521;28;20035;-58
2022/09/12 03:11:38;;;;;;;36.78;27.45;;;;;;;11.37;100.00;101505.38;5091381;28;20452;-59
2022/09/12 03:14:09;;;;;;;35.75;27.30;;;;;;;11.36;100.00;101495.44;5091071;28;20091;-59
2022/09/12 03:17:06;;;;;;;37.08;28.40;;;;;;;11.36;100.00;101487.13;5091706;28;20131;-59
2022/09/12 03:19:44;;;;;;;35.53;28.08;;;;;;;11.36;100.00;101489.88;5071323;28;20130;-59
2022/09/12 03:22:20;;;;;;;36.90;27.63;;;;;;;11.40;100.00;101498.44;5071816;28;20060;-59
2022/09/12 03:25:04;;;;;;;39.20;29.02;;;;;;;11.41;100.00;101496.50;5071457;28;20032;-60
2022/09/12 03:27:35;;;;;;;35.40;27.95;;;;;;;11.41;100.00;101490.97;5071272;28;20063;-60
2022/09/12 03:30:02;;;;;;;36.15;27.92;;;;;;;11.38;100.00;101487.66;5071399;28;20056;-59
2022/09/12 03:32:44;;;;;;;38.22;28.20;;;;;;;11.40;100.00;101490.13;5071397;28;20123;-60
2022/09/12 03:35:10;;;;;;;37.58;28.30;;;;;;;11.40;100.00;101492.88;5070305;28;20025;-61
2022/09/12 03:37:35;;;;;;;36.17;28.20;;;;;;;11.41;100.00;101489.00;5072074;28;20485;-60
2022/09/12 03:40:02;;;;;;;37.83;29.20;;;;;;;11.37;100.00;101483.22;5075177;28;20020;-60
2022/09/12 03:42:28;;;;;;;38.10;29.92;;;;;;;11.32;100.00;101480.53;5074801;28;20040;-59
2022/09/12 03:44:53;;;;;;;37.85;29.52;;;;;;;11.33;100.00;101487.72;5074530;28;20016;-59
2022/09/12 03:47:18;;;;;;;39.72;30.25;;;;;;;11.32;100.00;101483.31;5074188;28;20024;-59
2022/09/12 03:49:44;;;;;;;38.53;29.13;;;;;;;11.34;100.00;101491.31;5074633;28;20403;-59
2022/09/12 03:52:09;;;;;;;38.78;28.98;;;;;;;11.36;100.00;101481.56;5056691;28;20036;-59
2022/09/12 03:54:35;;;;;;;38.03;28.85;;;;;;;11.37;100.00;101479.66;5074422;28;20128;-59
2022/09/12 03:57:00;;;;;;;35.15;27.65;;;;;;;11.36;100.00;101481.56;5074783;28;20365;-59
2022/09/12 03:59:25;;;;;;;37.38;29.23;;;;;;;11.36;100.00;101481.56;5074191;28;20028;-59
2022/09/12 04:01:50;;;;;;;37.65;28.85;;;;;;;11.33;100.00;101475.81;5074255;28;20059;-59
2022/09/12 04:04:16;;;;;;;38.97;29.80;;;;;;;11.34;100.00;101477.47;5074394;28;20032;-59
2022/09/12 04:06:41;;;;;;;38.92;30.95;;;;;;;11.32;100.00;101480.53;5074320;28;20059;-59
2022/09/12 04:09:07;;;;;;;38.40;29.40;;;;;;;11.30;100.00;101468.91;5074101;28;20029;-60
2022/09/12 04:11:32;;;;;;;38.40;30.13;;;;;;;11.28;100.00;101465.63;5056637;28;20033;-60
2022/09/12 04:13:57;;;;;;;38.35;29.38;;;;;;;11.28;100.00;101468.38;5074307;28;20385;-59
2022/09/12 04:16:23;;;;;;;38.85;29.67;;;;;;;11.27;100.00;101463.97;5073962;28;20032;-59
2022/09/12 04:18:48;;;;;;;38.83;29.55;;;;;;;11.28;100.00;101470.34;5088907;28;20044;-59
2022/09/12 04:21:17;;;;;;;38.85;28.77;;;;;;;11.26;100.00;101462.31;5094463;28;20148;-59
2022/09/12 04:23:42;;;;;;;38.15;29.60;;;;;;;11.27;100.00;101458.41;5094147;28;20698;-60
2022/09/12 04:26:09;;;;;;;39.58;29.98;;;;;;;11.28;100.00;101462.84;5094014;28;20024;-60
2022/09/12 04:28:36;;;;;;;37.72;28.83;;;;;;;11.28;100.00;101462.84;5094168;28;20436;-61
2022/09/12 04:31:11;;;;;;;39.55;30.13;;;;;;;11.28;100.00;101468.38;5094038;28;20118;-60
2022/09/12 04:33:36;;;;;;;40.45;29.77;;;;;;;11.30;100.00;101460.59;5093865;28;20474;-60
2022/09/12 04:36:11;;;;;;;40.55;30.52;;;;;;;11.29;100.00;101460.91;5094009;28;20115;-60
2022/09/12 04:38:37;;;;;;;37.83;29.65;;;;;;;11.32;100.00;101457.53;5092938;28;20021;-60
2022/09/12 04:41:18;;;;;;;39.05;29.58;;;;;;;11.33;100.00;101462.81;5074746;28;20055;-60
2022/09/12 04:43:47;;;;;;;37.50;29.42;;;;;;;11.28;100.00;101445.41;5075683;28;20077;-60
2022/09/12 04:46:18;;;;;;;39.50;30.20;;;;;;;11.28;100.00;101442.66;5094114;28;20077;-61
2022/09/12 04:48:43;;;;;;;39.38;30.88;;;;;;;11.37;100.00;101447.22;5093343;28;20024;-59
2022/09/12 04:51:13;;;;;;;43.30;31.40;;;;;;;11.37;100.00;101458.28;5093658;28;20024;-60
2022/09/12 04:53:39;;;;;;;41.38;30.83;;;;;;;11.39;100.00;101446.91;5093680;28;20092;-60
2022/09/12 04:56:07;;;;;;;39.78;31.50;;;;;;;11.34;100.00;101436.72;5093647;28;20504;-60
2022/09/12 04:58:33;;;;;;;40.75;31.30;;;;;;;11.41;100.00;101441.91;5093614;28;20032;-60
2022/09/12 05:01:15;;;;;;;40.70;30.15;;;;;;;11.45;100.00;101451.28;5093492;28;20031;-60
2022/09/12 05:03:44;;;;;;;43.45;32.15;;;;;;;11.47;100.00;101445.44;5093934;28;20036;-60
2022/09/12 05:06:22;;;;;;;47.33;32.83;;;;;;;11.47;100.00;101449.03;5093673;28;20456;-60
2022/09/12 05:08:47;;;;;;;41.85;30.55;;;;;;;11.49;100.00;101449.53;5093546;28;20106;-60
2022/09/12 05:11:20;;;;;;;41.53;31.40;;;;;;;11.50;100.00;101450.38;5093566;28;20036;-60
2022/09/12 05:13:46;;;;;;;41.75;31.25;;;;;;;11.55;100.00;101450.31;5093642;28;20084;-59
2022/09/12 05:16:14;;;;;;;41.50;31.20;;;;;;;11.57;100.00;101455.56;5093676;28;20024;-59
2022/09/12 05:18:40;;;;;;;43.20;32.88;;;;;;;11.59;100.00;101456.91;5093576;28;20537;-60
2022/09/12 05:21:08;;;;;;;42.45;30.67;;;;;;;11.60;100.00;101458.56;5092848;28;20096;-60
2022/09/12 05:23:34;;;;;;;42.17;31.52;;;;;;;11.63;100.00;101457.13;5093217;28;20020;-60
2022/09/12 05:26:00;;;;;;;40.83;30.80;;;;;;;11.65;100.00;101454.91;5093110;28;20081;-59
2022/09/12 05:28:37;;;;;;;40.38;30.88;;;;;;;11.66;100.00;101451.00;5092663;28;20115;-60
2022/09/12 05:31:07;;;;;;;42.72;31.45;;;;;;;11.68;100.00;101454.28;5092669;28;20024;-59
2022/09/12 05:33:35;;;;;;;44.53;32.33;;;;;;;11.70;100.00;101449.28;5092514;28;20168;-59
2022/09/12 05:36:01;;;;;;;41.72;30.75;;;;;;;11.76;100.00;101455.56;5093258;28;20461;-61
2022/09/12 05:38:28;;;;;;;43.85;31.05;;;;;;;11.77;100.00;101455.25;5093165;28;20020;-60
2022/09/12 05:41:14;;;;;;;42.47;30.25;;;;;;;11.77;100.00;101454.44;5092991;28;20032;-60
2022/09/12 05:43:41;;;;;;;45.38;31.65;;;;;;;11.80;100.00;101446.34;5092038;28;20047;-60
2022/09/12 05:46:14;;;;;;;43.65;32.15;;;;;;;11.76;100.00;101444.47;5092236;28;20019;-60
2022/09/12 05:48:41;;;;;;;42.83;32.42;;;;;;;11.84;100.00;101452.97;5074096;28;20167;-57
2022/09/12 05:51:12;;;;;;;42.88;31.60;;;;;;;11.85;100.00;101457.34;5073552;28;20036;-61
2022/09/12 05:53:39;;;;;;;42.78;31.52;;;;;;;11.82;100.00;101444.13;5092323;28;20028;-61
2022/09/12 05:56:09;;;;;;;44.33;33.20;;;;;;;11.92;100.00;101448.66;5092131;28;20161;-61
2022/09/12 05:58:36;;;;;;;42.03;31.67;;;;;;;11.95;100.00;101458.34;5073726;28;20420;-61
2022/09/12 06:01:07;;;;;;;42.88;31.38;;;;;;;11.98;100.00;101461.38;5088456;28;20032;-60
2022/09/12 06:03:40;;;;;;;44.33;31.35;;;;;;;11.92;100.00;101453.41;5090947;28;20046;-61
2022/09/12 06:06:06;;;;;;;44.50;32.63;;;;;;;12.02;100.00;101472.69;5090228;28;20077;-60
2022/09/12 06:08:33;;;;;;;43.20;32.13;;;;;;;12.02;100.00;101476.28;5090555;28;20026;-61
2022/09/12 06:11:03;;;;;;;44.67;33.53;;;;;;;12.05;100.00;101476.81;5089922;28;20024;-60
2022/09/12 06:13:31;;;;;;;44.65;33.08;;;;;;;12.05;100.00;101468.47;5089778;28;20113;-59
2022/09/12 06:16:02;;;;;;;43.65;31.27;;;;;;;12.04;100.00;101469.59;5088462;28;20043;-58
2022/09/12 06:18:27;;;;;;;43.35;32.42;;;;;;;12.13;100.00;101474.19;5087615;28;20052;-61
2022/09/12 06:20:53;;;;;;;43.50;33.75;;;;;;;12.14;100.00;101470.25;5089344;28;20085;-60
2022/09/12 06:23:18;;;;;;;43.13;32.95;;;;;;;12.16;100.00;101473.56;5089112;28;20390;-60
2022/09/12 06:25:48;;;;;;;45.60;33.40;;;;;;;12.16;100.00;101478.31;5087470;28;20024;-60
2022/09/12 06:28:14;;;;;;;43.58;33.08;;;;;;;12.15;100.00;101471.91;5088550;28;20419;-61
2022/09/12 06:30:39;;;;;;;42.67;33.03;;;;;;;12.14;100.00;101469.44;5089277;28;20114;-58
2022/09/12 06:33:04;;;;;;;46.25;34.65;;;;;;;12.12;100.00;101461.44;5070727;28;20547;-60
2022/09/12 06:35:29;;;;;;;44.13;32.90;;;;;;;12.12;100.00;101466.16;5089104;28;20032;-59
2022/09/12 06:37:55;;;;;;;47.70;32.95;;;;;;;12.07;100.00;101469.81;5071739;28;20071;-61
2022/09/12 06:40:20;;;;;;;46.80;33.58;;;;;;;12.07;100.00;101461.50;5090012;28;20024;-59
2022/09/12 06:42:45;;;;;;;43.63;32.95;;;;;;;12.07;100.00;101464.28;5089932;28;20368;-61
2022/09/12 06:45:11;;;;;;;45.95;33.67;;;;;;;12.07;100.00;101463.47;5089391;28;20056;-60
2022/09/12 06:47:36;;;;;;;43.90;32.70;;;;;;;12.07;100.00;101466.25;5089573;28;20052;-60
2022/09/12 06:50:01;;;;;;;46.45;33.40;;;;;;;12.07;100.00;101463.47;5089420;28;20027;-60
2022/09/12 06:52:28;;;;;;;51.58;33.85;;;;;;;12.10;100.00;101465.63;5089572;28;20062;-60
2022/09/12 06:54:53;;;;;;;44.80;32.67;;;;;;;12.09;100.00;101456.50;5089342;28;20028;-60
2022/09/12 06:57:18;;;;;;;44.65;33.65;;;;;;;12.21;100.00;101461.56;5089579;28;20537;-60
2022/09/12 06:59:43;;;;;;;45.67;32.75;;;;;;;12.25;100.00;101462.63;5089911;28;20028;-59
2022/09/12 07:02:09;;;;;;;45.38;32.88;;;;;;;12.35;100.00;101461.59;5089740;28;20115;-58
2022/09/12 07:04:35;;;;;;;46.03;33.55;;;;;;;12.46;100.00;101465.88;5089680;28;20039;-60
2022/09/12 07:07:01;;;;;;;48.67;35.65;;;;;;;12.60;100.00;101457.56;5089644;28;20057;-61
2022/09/12 07:09:28;;;;;;;48.45;36.53;;;;;;;12.74;100.00;101451.25;5089497;28;20032;-59
2022/09/12 07:11:53;;;;;;;48.17;36.13;;;;;;;12.88;100.00;101451.25;5089940;28;20024;-60
2022/09/12 07:14:19;;;;;;;44.55;33.65;;;;;;;12.97;100.00;101459.69;5093315;28;20031;-60
2022/09/12 07:16:44;;;;;;;44.33;33.88;;;;;;;13.08;100.00;101455.56;5093675;28;20491;-60
2022/09/12 07:19:10;;;;;;;44.97;34.60;;;;;;;13.18;100.00;101455.38;5091751;28;20048;-61
2022/09/12 07:21:38;;;;;;;44.47;34.28;;;;;;;13.27;100.00;101455.50;5093943;28;20051;-61
2022/09/12 07:24:04;;;;;;;45.40;34.58;;;;;;;13.34;100.00;101443.94;5075407;28;20056;-61
2022/09/12 07:26:29;;;;;;;44.70;33.72;;;;;;;13.41;100.00;101442.41;5093929;28;20075;-60
2022/09/12 07:28:56;;;;;;;43.83;33.78;;;;;;;13.50;100.00;101444.47;5093531;28;20025;-61
2022/09/12 07:31:23;;;;;;;46.13;34.15;;;;;;;13.60;100.00;101447.03;5092980;28;20032;-60
2022/09/12 07:33:49;;;;;;;41.90;33.30;;;;;;;13.69;100.00;101442.38;5093170;28;20028;-59
2022/09/12 07:36:17;;;;;;;46.08;34.05;;;;;;;13.77;100.00;101443.59;5093353;28;20178;-60
2022/09/12 07:38:43;;;;;;;42.17;32.40;;;;;;;13.87;100.00;101445.28;5093369;28;20024;-61
2022/09/12 07:41:19;;;;;;;42.72;32.88;;;;;;;13.99;100.00;101445.56;5093464;28;20043;-61
2022/09/12 07:43:45;;;;;;;39.38;30.70;;;;;;;14.11;100.00;101444.19;5082863;28;20799;-61
2022/09/12 07:46:11;;;;;;;41.75;32.03;;;;;;;14.19;100.00;101455.38;5088734;28;20103;-60
2022/09/12 07:48:38;;;;;;;40.25;30.70;;;;;;;14.28;100.00;101455.44;5092771;28;20097;-61
2022/09/12 07:51:06;;;;;;;40.08;30.00;;;;;;;14.34;100.00;101456.94;5092702;28;20090;-61
2022/09/12 07:53:35;;;;;;;41.13;32.22;;;;;;;14.40;100.00;101448.50;5093227;28;20124;-58
2022/09/12 07:56:02;;;;;;;40.35;31.20;;;;;;;14.56;100.00;101457.25;5093272;28;20027;-60
2022/09/12 07:58:29;;;;;;;37.80;30.20;;;;;;;14.65;100.00;101455.31;5093156;28;20095;-61
2022/09/12 08:01:01;;;;;;;37.97;29.90;;;;;;;14.74;100.00;101461.78;5092798;28;20088;-60
2022/09/12 08:03:26;;;;;;;41.03;32.08;;;;;;;14.86;100.00;101452.88;5074418;28;20040;-60
2022/09/12 08:05:51;;;;;;;37.47;30.15;;;;;;;14.97;100.00;101450.59;5092884;28;20096;-61
2022/09/12 08:08:17;;;;;;;40.42;31.73;;;;;;;15.10;100.00;101449.69;5092499;28;20373;-59
2022/09/12 08:10:42;;;;;;;40.17;31.15;;;;;;;15.21;100.00;101455.78;5092551;28;20028;-61
2022/09/12 08:13:07;;;;;;;37.83;30.63;;;;;;;15.31;100.00;101454.66;5092775;28;20769;-60
2022/09/12 08:15:33;;;;;;;38.25;30.90;;;;;;;15.42;100.00;101453.22;5092493;28;20440;-59
2022/09/12 08:17:59;;;;;;;37.42;30.80;;;;;;;15.53;100.00;101458.47;5091615;28;20054;-58
2022/09/12 08:20:24;;;;;;;37.10;29.33;;;;;;;15.62;100.00;101456.53;5092736;28;20028;-60
2022/09/12 08:22:50;;;;;;;38.15;29.25;;;;;;;15.70;100.00;101455.72;5092279;28;20028;-60
2022/09/12 08:25:15;;;;;;;38.05;28.63;;;;;;;15.74;100.00;101448.34;5091781;28;20031;-60
2022/09/12 08:27:41;;;;;;;35.28;28.38;;;;;;;15.84;100.00;101463.97;5092404;28;20032;-60
2022/09/12 08:30:07;;;;;;;35.72;27.27;;;;;;;15.89;99.11;101463.81;5091979;28;20115;-60
2022/09/12 08:32:33;;;;;;;35.13;27.63;;;;;;;15.92;98.02;101455.94;5092133;28;20153;-60
2022/09/12 08:34:58;;;;;;;34.67;27.67;;;;;;;16.01;98.96;101463.16;5091802;28;20024;-60
2022/09/12 08:37:24;;;;;;;34.45;27.77;;;;;;;16.03;97.82;101460.88;5091315;28;20043;-60
2022/09/12 08:39:49;;;;;;;34.97;28.33;;;;;;;16.08;97.75;101470.19;5086717;28;20028;-61
2022/09/12 08:42:37;;;;;;;34.47;27.65;;;;;;;16.15;97.53;101467.75;5086227;28;20019;-60
2022/09/12 08:45:14;;;;;;;33.83;27.73;;;;;;;16.27;97.54;101470.69;5071432;28;20055;-60
2022/09/12 08:47:42;;;;;;;35.03;28.45;;;;;;;16.43;97.71;101462.63;5071457;28;20024;-60
2022/09/12 08:50:08;;;;;;;34.55;27.65;;;;;;;16.59;96.98;101462.94;5090680;28;20089;-60
2022/09/12 08:53:19;;;;;;;34.13;27.30;;;;;;;16.76;96.57;101464.84;5092295;28;20023;-61
2022/09/12 08:56:01;;;;;;;34.22;26.80;;;;;;;16.89;95.97;101456.56;5087259;28;20036;-60
2022/09/12 08:58:28;;;;;;;34.58;27.50;;;;;;;16.99;95.16;101454.28;5091746;28;20036;-60
2022/09/12 09:01:14;;;;;;;31.60;25.60;;;;;;;17.12;93.83;101457.16;5091675;28;20036;-60
2022/09/12 09:04:06;;;;;;;34.97;27.20;;;;;;;17.17;92.33;101458.94;5091647;28;20498;-60
2022/09/12 09:06:46;;;;;;;34.00;26.65;;;;;;;17.24;93.14;101443.31;5091640;28;20028;-59
2022/09/12 09:09:37;;;;;;;31.92;25.77;;;;;;;17.44;92.95;101454.88;5091502;28;20135;-60
2022/09/12 09:12:15;;;;;;;32.53;25.65;;;;;;;17.48;90.66;101441.03;5091540;28;20031;-61
2022/09/12 09:15:02;;;;;;;32.97;25.60;;;;;;;17.67;90.46;101458.16;5083283;28;20389;-60
2022/09/12 09:17:37;;;;;;;30.48;24.00;;;;;;;17.80;89.75;101450.66;5089404;28;20052;-61
2022/09/12 09:20:48;;;;;;;31.70;24.13;;;;;;;17.97;89.83;101452.53;5091498;28;20024;-60
2022/09/12 09:23:22;;;;;;;32.83;24.85;;;;;;;18.07;87.59;101445.69;4990063;28;20448;-60
2022/09/12 09:26:06;;;;;;;31.25;24.38;;;;;;;18.10;87.51;101433.81;4989991;28;20038;-61
2022/09/12 09:28:35;;;;;;;31.80;23.47;;;;;;;18.30;87.96;101432.13;5056747;28;20046;-61
2022/09/12 09:31:01;;;;;;;30.98;24.67;;;;;;;18.47;85.70;101445.16;5091281;28;20028;-59
2022/09/12 09:33:33;;;;;;;30.02;23.95;;;;;;;18.46;84.50;101423.09;5091362;28;20141;-61
2022/09/12 09:36:15;;;;;;;31.33;23.17;;;;;;;18.67;86.38;101439.81;5072147;28;20043;-61
2022/09/12 09:38:43;;;;;;;29.85;22.58;;;;;;;18.75;81.81;101435.28;5091465;28;20122;-62
2022/09/12 09:41:27;;;;;;;30.17;23.00;;;;;;;18.80;83.67;101437.84;5091538;28;20028;-61
2022/09/12 09:43:52;;;;;;;28.85;22.55;;;;;;;18.83;82.01;101442.78;5091715;28;20028;-61
2022/09/12 09:46:17;;;;;;;28.02;21.88;;;;;;;18.94;82.56;101438.34;5090485;28;20016;-60
2022/09/12 09:48:47;;;;;;;28.80;22.25;;;;;;;19.12;82.65;101421.34;5090923;28;20035;-61
2022/09/12 09:51:14;;;;;;;28.40;22.50;;;;;;;19.30;82.66;101428.34;5090763;28;20531;-60
2022/09/12 09:53:47;;;;;;;29.30;23.35;;;;;;;19.40;81.25;101418.59;5090560;28;20028;-61
2022/09/12 09:56:33;;;;;;;29.30;21.83;;;;;;;19.48;80.65;101402.81;5089619;28;20055;-61
2022/09/12 09:59:32;;;;;;;27.23;20.45;;;;;;;19.63;80.61;101416.09;5084766;28;20092;-61
2022/09/12 10:02:12;;;;;;;27.02;19.92;;;;;;;19.75;79.10;101411.63;5028983;28;20086;-61
2022/09/12 10:04:40;;;;;;;27.73;19.90;;;;;;;19.67;76.61;101385.34;5075076;28;20078;-61
2022/09/12 10:07:17;;;;;;;28.77;20.95;;;;;;;19.76;77.80;101402.03;5083207;28;20186;-61
2022/09/12 10:10:05;;;;;;;27.38;21.00;;;;;;;19.79;77.98;101393.72;5078232;28;20028;-60
2022/09/12 10:12:30;;;;;;;24.83;18.20;;;;;;;19.96;76.82;101386.19;5085320;28;20131;-60
2022/09/12 10:15:14;;;;;;;26.77;18.10;;;;;;;20.06;76.43;101393.31;5076909;28;20098;-61
2022/09/12 10:17:45;;;;;;;22.73;16.63;;;;;;;20.09;72.43;101393.41;5095339;28;20135;-61
2022/09/12 10:20:43;;;;;;;23.05;16.95;;;;;;;20.13;74.67;101390.69;5103691;28;20025;-61
2022/09/12 10:23:23;;;;;;;24.10;16.30;;;;;;;20.17;74.27;101362.69;5074474;28;20074;-61
2022/09/12 10:25:55;;;;;;;24.75;17.52;;;;;;;20.40;72.78;101382.56;5081001;28;20053;-61
2022/09/12 10:28:29;;;;;;;23.55;16.58;;;;;;;20.56;72.87;101385.41;5099899;28;20028;-61
2022/09/12 10:30:55;;;;;;;24.02;17.13;;;;;;;20.57;70.63;101376.59;5082283;28;20055;-62
2022/09/12 10:33:23;;;;;;;24.42;16.25;;;;;;;20.65;70.85;101371.16;5103360;28;20028;-61
2022/09/12 10:35:49;;;;;;;22.42;15.73;;;;;;;20.73;70.89;101364.56;5100021;28;20436;-61
2022/09/12 10:38:27;;;;;;;22.75;15.20;;;;;;;20.85;70.06;101363.66;5097607;28;20035;-60
2022/09/12 10:40:59;;;;;;;20.73;14.85;;;;;;;20.93;69.46;101373.06;5084372;28;20034;-62
2022/09/12 10:43:39;;;;;;;22.25;15.18;;;;;;;20.99;69.82;101349.94;5100165;28;20019;-60
2022/09/12 10:46:28;;;;;;;20.63;13.48;;;;;;;21.13;69.17;101352.25;5088934;28;20127;-60
2022/09/12 10:49:18;;;;;;;21.02;13.77;;;;;;;21.08;67.72;101357.34;5062826;28;20092;-62
2022/09/12 10:51:43;;;;;;;20.48;13.93;;;;;;;21.06;66.31;101345.66;5099798;28;20098;-61
2022/09/12 10:54:11;;;;;;;20.88;13.70;;;;;;;21.09;64.08;101340.13;5104139;28;20515;-61
2022/09/12 10:56:46;;;;;;;21.67;14.60;;;;;;;21.06;64.93;101335.22;5092523;28;20107;-58
2022/09/12 10:59:53;;;;;;;20.58;13.73;;;;;;;21.09;67.29;101337.31;5101928;28;20028;-59
2022/09/12 11:02:43;;;;;;;20.42;12.82;;;;;;;21.26;66.27;101336.06;5065535;28;20113;-61
2022/09/12 11:05:36;;;;;;;21.00;13.20;;;;;;;21.37;63.87;101338.28;5088979;28;20028;-61
2022/09/12 11:08:21;;;;;;;20.15;13.43;;;;;;;21.40;65.54;101323.50;5064719;28;20047;-61
2022/09/12 11:11:05;;;;;;;20.23;13.75;;;;;;;21.55;64.08;101322.59;5071293;28;20036;-61
2022/09/12 11:13:33;;;;;;;;;;;;;;;21.68;68.13;101328.94;5089569;28;20439;-61
2022/09/12 11:16:13;;;;;;;19.48;13.48;;;;;;;21.81;65.01;101321.16;5089495;28;19912;-62
2022/09/12 11:19:09;;;;;;;19.90;13.10;;;;;;;21.92;64.62;101312.91;5087427;28;20056;-61
2022/09/12 11:21:59;;;;;;;19.85;12.70;;;;;;;21.97;62.18;101321.03;5088317;28;20046;-60
2022/09/12 11:24:43;;;;;;;19.45;12.68;;;;;;;22.06;63.70;101312.38;5089259;28;20024;-61
2022/09/12 11:27:32;;;;;;;17.65;12.07;;;;;;;22.17;62.94;101309.72;5089536;28;20024;-61